Skip Navigation Links Skip Navigation Links

Current Weather

Northolt, United Kingdom

For information only: do not use for flight planning or navigation.
Latest weather
Observation time Tuesday, September 28, 2021 10:20 AM BST
Local time Tuesday, September 28, 2021 10:39 AM BST
Flight conditions Visual Meteorological Conditions
Winds
Wind direction South (180°)
Wind speed 10 mph
Visibility 6.2 mi.
Present weather rain showers
Sky condition
Ceiling 10,000 ft. broken clouds
Cloud layer few clouds 1,600 ft.
Cloud layer scattered clouds 2,000 ft.
Cloud layer scattered clouds 6,000 ft.
Cloud layer broken clouds 10,000 ft.
Temperature 59°F
Dewpoint 52°F
Altimeter 30.03 in.Hg
Derived measurements
Relative humidity 77%
Density altitude 98 ft.
Remarks
Temporarily.
METAR EGWU 280920Z 18009KT 9999 FEW016 SCT060 BKN100 15/11 Q1017 TEMPO 7000 SHRA SCT020 RMK BLU TEMPO WHT

Settings

Location code

InnerDrive.Weather 4.0.6770.0 Release CLR 4.0.30319.42000
Copyright ©2018 Inner Drive Technology. All rights reserved. Portions Copyright ©1986-2018 David Braverman.

Find weather

Site navigation


Skip Navigation Links

Place info

Page info

PayPal - The safer, easier way to pay online!

Return home.

Copyright ©2021 Inner Drive Technology. Purveyors of fine, hand-crafted computer software. Page printed 2021-09-28T09:39:08 UTC.